Max, NE

7:16 PM MDT on September 22, 2014 (GMT -0600)
Shaltz | Change Station
CLOSE
Current Station
Airport
Location: Colby,
Elevation: 3186 ft
Nearby Weather Stations
Active Advisory: Special Weather Statement

Elev 3186 ft 39.43 °N, 101.05 °W | Updated 21 minutes ago

Overcast
Overcast
70 °F
Feels Like 70 °F
N
15
Wind Variable Wind from SSE

Today
High -- | Low -- °F
--% Chance of Precip.
Yesterday
High -- | Low -- °F
Precip. -- in
6:33 AM 6:42 PM
Waning Crescent, 1% visible
Pressure 30.10 in
Visibility 10.0 miles
Clouds Clear
Dew Point 54 °F
Humidity 56%
Rainfall 0.00 in
Snow Depth Not available.
UV 0 out of 12
Pollen 6.20 out of 12
Air Quality Not available.
Flu Activity Not available.
METAR KCBK 230055Z AUTO 15013KT 10SM CLR 21/12 A3010 RMK AO2

More Conditions Fewer Conditions

Pressure 30.10 in
Visibility 10.0 miles
Clouds Clear
Dew Point 54 °F
Humidity 56%
Rainfall 0.00 in
Snow Depth Not available.
UV 0 out of 12
Pollen 6.20 out of 12
Air Quality Not available.
Flu Activity Not available.
METAR KCBK 230055Z AUTO 15013KT 10SM CLR 21/12 A3010 RMK AO2

More Conditions Fewer Conditions

10-Day Weather Forecast

Almanac

Astronomy

Sep. 22, 2014 Rise Set
Actual Time 6:33 AM MDT 6:42 PM MDT
Civil Twilight 6:06 AM MDT 7:09 PM MDT
Nautical Twilight 5:34 AM MDT 7:41 PM MDT
Astronomical Twilight 5:02 AM MDT 8:13 PM MDT
Moon 5:03 AM MDT (9/22) 5:51 PM MDT (9/22)
Length of Visible Light 13h 03m
Length of Day
12h 09m
Tomorrow will be 2m 38s shorter.
Waning Crescent, 1% of the Moon is Illuminated
Today
Waning Crescent
Sep 24
New
Oct 1
First Quarter
Oct 8
Full
Oct 15
Last Quarter

Today's Extremes

State Highs State Lows

Community

WunderPhotos

Upload Photos

1,755,578 photos uploaded!

Nearby

Snow Depth

Station Depth Elevation
No new snow has been reported.

Earthquake Activity

City Distance Mag. Time & Date
No recent earthquake activity has been reported nearby.
Minimum magnitude displayed is 2.5.

Coastal Water Temperatures

Place Temperature
No Stations Reporting

Nearby Weather Stations